Time;durP1;ratioP1;P1;durP2;ratioP2;P2;SDS_P1;SDS_P2;PMS_P1;PMS_P2;Temp;Humidity;BMP_temperature;BMP_pressure;BME280_temperature;BME280_humidity;BME280_pressure;Samples;Min_cycle;Max_cycle;Signal;HPM_P1;HPM_P2
2022/01/08 00:01:11;;;;;;;;;;;11.60;94.50;;;;;;5054663;28;19921;-74
2022/01/08 00:03:37;;;;;;;;;;;;;;;;;;5036416;28;20358;-74
2022/01/08 00:06:03;;;;;;;;;;;11.60;94.40;;;;;;5053538;28;20409;-74
2022/01/08 00:08:29;;;;;;;;;;;11.50;94.40;;;;;;5038565;28;19924;-74
2022/01/08 00:10:55;;;;;;;;;;;11.60;94.30;;;;;;5035924;28;19921;-71
2022/01/08 00:13:21;;;;;;;;;;;11.30;94.30;;;;;;5053895;28;20209;-70
2022/01/08 00:15:46;;;;;;;;;;;11.40;94.30;;;;;;5022750;28;20015;-66
2022/01/08 00:18:12;;;;;;;;;;;11.30;94.30;;;;;;5046721;28;20297;-69
2022/01/08 00:20:38;;;;;;;;;;;11.50;94.30;;;;;;5056286;28;19921;-72
2022/01/08 00:23:03;;;;;;;;;;;11.60;94.30;;;;;;5038789;28;19925;-67
2022/01/08 00:25:29;;;;;;;;;;;11.60;94.30;;;;;;5047293;28;19921;-71
2022/01/08 00:27:55;;;;;;;;;;;11.60;94.30;;;;;;5049367;28;20301;-67
2022/01/08 00:30:20;;;;;;;;;;;11.50;94.30;;;;;;5042875;28;19920;-70
2022/01/08 00:32:46;;;;;;;;;;;11.60;94.30;;;;;;5065388;28;19964;-71
2022/01/08 00:35:12;;;;;;;;;;;11.30;94.20;;;;;;5039866;28;20437;-70
2022/01/08 00:37:38;;;;;;;;;;;11.70;94.20;;;;;;5055538;28;19928;-70
2022/01/08 00:40:07;;;;;;;;;;;11.40;94.20;;;;;;5037776;28;19974;-63
2022/01/08 00:42:33;;;;;;;;;;;11.40;94.10;;;;;;5048887;28;19974;-75
2022/01/08 00:44:58;;;;;;;;;;;11.60;94.20;;;;;;5054545;28;19999;-70
2022/01/08 00:47:24;;;;;;;;;;;11.50;94.10;;;;;;5051567;28;19921;-71
2022/01/08 00:49:50;;;;;;;;;;;11.40;94.10;;;;;;5054456;28;19921;-71
2022/01/08 00:52:15;;;;;;;;;;;11.30;94.10;;;;;;5038423;28;19959;-70
2022/01/08 00:54:41;;;;;;;;;;;11.40;94.10;;;;;;5018294;28;19925;-72
2022/01/08 00:57:06;;;;;;;;;;;11.40;94.10;;;;;;5051047;28;20384;-71
2022/01/08 00:59:32;;;;;;;;;;;11.30;94.10;;;;;;5036961;28;19921;-71
2022/01/08 01:01:58;;;;;;;;;;;11.50;94.10;;;;;;5039486;28;20397;-70
2022/01/08 01:04:24;;;;;;;;;;;;;;;;;;5018023;28;19939;-69
2022/01/08 01:06:49;;;;;;;;;;;11.60;94.10;;;;;;5049439;28;19925;-69
2022/01/08 01:09:15;;;;;;;;;;;11.30;94.00;;;;;;5044594;28;19949;-71
2022/01/08 01:11:41;;;;;;;;;;;11.40;94.10;;;;;;5046613;28;19925;-71
2022/01/08 01:14:06;;;;;;;;;;;11.20;94.00;;;;;;5017585;28;19921;-72
2022/01/08 01:16:32;;;;;;;;;;;11.40;94.10;;;;;;5047876;28;19927;-68
2022/01/08 01:19:02;;;;;;;;;;;11.40;94.00;;;;;;5049273;28;20440;-71
2022/01/08 01:21:27;;;;;;;;;;;11.40;94.00;;;;;;5043792;28;19923;-71
2022/01/08 01:23:53;;;;;;;;;;;11.40;94.00;;;;;;5047907;28;20364;-71
2022/01/08 01:26:24;;;;;;;;;;;11.50;94.10;;;;;;5037584;28;19946;-71
2022/01/08 01:47:14;;;;;;;;;;;11.30;94.00;;;;;;4988740;28;20601;-72
2022/01/08 01:49:41;;;;;;;;;;;11.40;94.00;;;;;;4992620;28;20009;-70
2022/01/08 01:52:07;;;;;;;;;;;;;;;;;;4992473;28;20069;-71
2022/01/08 01:54:33;;;;;;;;;;;11.40;94.00;;;;;;4990664;28;19926;-66
2022/01/08 01:56:59;;;;;;;;;;;;;;;;;;4991639;28;19926;-68
2022/01/08 01:59:25;;;;;;;;;;;11.40;94.00;;;;;;4992349;28;19976;-71
2022/01/08 02:01:50;;;;;;;;;;;11.40;94.00;;;;;;4992027;28;20339;-72
2022/01/08 02:04:16;;;;;;;;;;;11.30;94.00;;;;;;4991110;28;19952;-72
2022/01/08 02:06:41;;;;;;;;;;;11.30;93.90;;;;;;5001498;28;20446;-70
2022/01/08 02:09:07;;;;;;;;;;;11.30;94.00;;;;;;4974913;28;20372;-72
2022/01/08 02:11:33;;;;;;;;;;;11.10;93.90;;;;;;4997420;28;20400;-71
2022/01/08 02:14:04;;;;;;;;;;;11.10;93.90;;;;;;4991867;28;19954;-69
2022/01/08 02:16:30;;;;;;;;;;;11.50;94.00;;;;;;4991634;28;19922;-75
2022/01/08 02:18:56;;;;;;;;;;;11.30;93.90;;;;;;4991872;28;19928;-70
2022/01/08 02:21:22;;;;;;;;;;;;;;;;;;4991266;28;19925;-70
2022/01/08 02:23:48;;;;;;;;;;;11.30;93.90;;;;;;5011002;28;19956;-71
2022/01/08 02:26:14;;;;;;;;;;;11.30;93.90;;;;;;5042299;28;19921;-70
2022/01/08 02:28:40;;;;;;;;;;;11.20;93.90;;;;;;5037283;28;20401;-71
2022/01/08 02:31:06;;;;;;;;;;;11.40;93.90;;;;;;5048622;28;19921;-72
2022/01/08 02:33:31;;;;;;;;;;;11.30;93.90;;;;;;5035299;28;20019;-71
2022/01/08 02:35:57;;;;;;;;;;;11.10;93.90;;;;;;5043031;28;19920;-65
2022/01/08 02:38:23;;;;;;;;;;;11.20;93.70;;;;;;5052297;28;19920;-71
2022/01/08 02:41:02;;;;;;;;;;;;;;;;;;5053520;28;19920;-70
2022/01/08 02:43:29;;;;;;;;;;;11.20;94.00;;;;;;5047565;28;19920;-65
2022/01/08 02:45:54;;;;;;;;;;;11.00;93.90;;;;;;5038658;28;20440;-72
2022/01/08 02:48:20;;;;;;;;;;;11.10;93.90;;;;;;5048599;28;19925;-72
2022/01/08 02:50:46;;;;;;;;;;;;;;;;;;5033899;28;19921;-72
2022/01/08 02:53:12;;;;;;;;;;;11.10;93.90;;;;;;5052650;28;20362;-71
2022/01/08 02:55:37;;;;;;;;;;;11.40;94.00;;;;;;5051878;28;19921;-72
2022/01/08 02:58:03;;;;;;;;;;;11.10;94.00;;;;;;5050152;28;19921;-71
2022/01/08 03:00:29;;;;;;;;;;;11.20;94.00;;;;;;5049647;28;20026;-71
2022/01/08 03:02:54;;;;;;;;;;;11.10;93.90;;;;;;5047438;28;19920;-68
2022/01/08 03:05:20;;;;;;;;;;;11.20;94.00;;;;;;5052393;28;19916;-72
2022/01/08 03:07:46;;;;;;;;;;;11.30;94.00;;;;;;5043103;28;19990;-72
2022/01/08 03:10:14;;;;;;;;;;;11.30;94.00;;;;;;5053039;28;20350;-70
2022/01/08 03:12:41;;;;;;;;;;;11.40;94.00;;;;;;5052678;28;20004;-69
2022/01/08 03:15:10;;;;;;;;;;;11.20;93.90;;;;;;5052296;28;20007;-72
2022/01/08 03:17:36;;;;;;;;;;;11.20;93.90;;;;;;5047020;28;19967;-75
2022/01/08 03:20:05;;;;;;;;;;;11.30;93.90;;;;;;5036776;28;19920;-69
2022/01/08 03:22:31;;;;;;;;;;;11.30;94.00;;;;;;5050872;28;19925;-70
2022/01/08 03:24:57;;;;;;;;;;;11.30;93.90;;;;;;5056156;28;19928;-72
2022/01/08 03:27:22;;;;;;;;;;;11.10;93.90;;;;;;5040416;28;19927;-72
2022/01/08 03:29:48;;;;;;;;;;;11.10;93.80;;;;;;5053625;28;20286;-71
2022/01/08 03:32:14;;;;;;;;;;;11.30;93.90;;;;;;5037456;28;19921;-74
2022/01/08 03:34:39;;;;;;;;;;;11.40;94.00;;;;;;5053932;28;19921;-70
2022/01/08 03:37:05;;;;;;;;;;;11.30;93.90;;;;;;5051122;28;20008;-75
2022/01/08 03:39:30;;;;;;;;;;;11.40;93.80;;;;;;5055048;28;20305;-73
2022/01/08 03:41:56;;;;;;;;;;;11.20;93.90;;;;;;5055045;28;20404;-75
2022/01/08 03:44:22;;;;;;;;;;;11.10;93.80;;;;;;5045547;28;20007;-71
2022/01/08 03:46:47;;;;;;;;;;;11.20;93.90;;;;;;5055783;28;19920;-71
2022/01/08 03:49:24;;;;;;;;;;;;;;;;;;5056886;28;19920;-72
2022/01/08 03:51:50;;;;;;;;;;;11.40;94.00;;;;;;5052999;28;19943;-70
2022/01/08 03:54:16;;;;;;;;;;;11.00;93.80;;;;;;5050981;28;19927;-72
2022/01/08 03:56:42;;;;;;;;;;;11.40;93.90;;;;;;5036497;28;20008;-69
2022/01/08 03:59:07;;;;;;;;;;;11.00;93.90;;;;;;5056219;28;20285;-71
2022/01/08 04:01:33;;;;;;;;;;;11.20;93.90;;;;;;5032449;28;19921;-71
2022/01/08 04:03:59;;;;;;;;;;;11.20;93.90;;;;;;5042073;28;19968;-68
2022/01/08 04:06:24;;;;;;;;;;;11.20;93.90;;;;;;5040903;28;19920;-72
2022/01/08 04:08:56;;;;;;;;;;;11.30;93.90;;;;;;5039700;28;19920;-74
2022/01/08 04:11:22;;;;;;;;;;;11.10;93.80;;;;;;5054321;28;20004;-74
2022/01/08 04:13:48;;;;;;;;;;;11.20;93.90;;;;;;5051459;28;19921;-68
2022/01/08 04:16:19;;;;;;;;;;;;;;;;;;5055192;28;19921;-71
2022/01/08 04:18:45;;;;;;;;;;;11.20;93.80;;;;;;5037125;28;20320;-71
2022/01/08 04:23:54;;;;;;;;;;;11.10;93.90;;;;;;5060615;28;19925;-72
2022/01/08 04:26:22;;;;;;;;;;;11.00;93.80;;;;;;5064948;28;20035;-74
2022/01/08 04:28:48;;;;;;;;;;;11.00;93.80;;;;;;5054649;28;19963;-75
2022/01/08 04:31:14;;;;;;;;;;;11.20;93.90;;;;;;5049469;28;20294;-73
2022/01/08 04:33:39;;;;;;;;;;;11.30;93.90;;;;;;5039437;28;19922;-72
2022/01/08 04:36:05;;;;;;;;;;;10.90;93.80;;;;;;5039639;28;19920;-73
2022/01/08 04:38:32;;;;;;;;;;;;;;;;;;5047968;28;19979;-73
2022/01/08 04:40:58;;;;;;;;;;;11.30;93.90;;;;;;5035884;28;19944;-73
2022/01/08 04:43:23;;;;;;;;;;;10.90;93.80;;;;;;5048180;28;19925;-71
2022/01/08 04:45:51;;;;;;;;;;;11.10;93.80;;;;;;5039169;28;20389;-72
2022/01/08 04:48:16;;;;;;;;;;;11.20;93.80;;;;;;5054532;28;19944;-72
2022/01/08 04:50:42;;;;;;;;;;;;;;;;;;5055124;28;19920;-73
2022/01/08 04:53:08;;;;;;;;;;;11.20;93.80;;;;;;5054971;28;19920;-72
2022/01/08 04:55:33;;;;;;;;;;;11.30;93.90;;;;;;5045942;28;20020;-72
2022/01/08 04:57:59;;;;;;;;;;;11.10;93.50;;;;;;5055340;28;19916;-73
2022/01/08 05:00:25;;;;;;;;;;;11.00;93.80;;;;;;5042162;28;19925;-72
2022/01/08 05:02:50;;;;;;;;;;;11.10;93.80;;;;;;5054585;28;19944;-72
2022/01/08 05:05:16;;;;;;;;;;;11.00;93.70;;;;;;5041511;28;19917;-72
2022/01/08 05:07:42;;;;;;;;;;;11.00;93.70;;;;;;5050612;28;20009;-71
2022/01/08 05:10:08;;;;;;;;;;;11.10;93.80;;;;;;5037079;28;19924;-74
2022/01/08 05:12:33;;;;;;;;;;;11.20;93.80;;;;;;5040999;28;19921;-74
2022/01/08 05:15:01;;;;;;;;;;;;;;;;;;5035706;28;19921;-74
2022/01/08 05:17:52;;;;;;;;;;;11.00;93.80;;;;;;5050100;28;20376;-74
2022/01/08 05:20:15;;;;;;;;;;;11.20;93.90;;;;;;5044175;28;19924;-73
2022/01/08 05:22:51;;;;;;;;;;;11.30;93.80;;;;;;5053666;28;19975;-73
2022/01/08 05:25:17;;;;;;;;;;;11.30;93.80;;;;;;5054483;28;19924;-73
2022/01/08 05:27:43;;;;;;;;;;;11.10;93.80;;;;;;5043979;28;19944;-73
2022/01/08 05:30:09;;;;;;;;;;;;;;;;;;5033281;28;19991;-72
2022/01/08 05:32:34;;;;;;;;;;;11.20;93.70;;;;;;5047440;28;20386;-73
2022/01/08 05:35:00;;;;;;;;;;;11.20;93.80;;;;;;5035372;28;19975;-73
2022/01/08 05:37:26;;;;;;;;;;;;;;;;;;5042130;28;19917;-73
2022/01/08 05:39:53;;;;;;;;;;;11.00;93.70;;;;;;5052884;28;19951;-73
2022/01/08 05:42:18;;;;;;;;;;;11.30;93.80;;;;;;5053758;28;19927;-73
2022/01/08 05:44:44;;;;;;;;;;;11.20;93.80;;;;;;5053845;28;20286;-74
2022/01/08 05:47:09;;;;;;;;;;;11.00;93.70;;;;;;5053709;28;19942;-76
2022/01/08 05:49:35;;;;;;;;;;;11.20;93.80;;;;;;5049381;28;19921;-73
2022/01/08 05:52:01;;;;;;;;;;;;;;;;;;5051772;28;19925;-72
2022/01/08 05:54:26;;;;;;;;;;;11.10;93.70;;;;;;5053979;28;20027;-73
2022/01/08 05:56:52;;;;;;;;;;;11.40;93.80;;;;;;5032432;28;20038;-72
2022/01/08 05:59:18;;;;;;;;;;;11.00;93.70;;;;;;5043186;28;19927;-73
2022/01/08 06:01:43;;;;;;;;;;;11.20;93.80;;;;;;5053848;28;19927;-70
2022/01/08 06:04:09;;;;;;;;;;;11.00;93.70;;;;;;5052006;28;19923;-73
2022/01/08 06:06:35;;;;;;;;;;;;;;;;;;5019514;28;19921;-70
2022/01/08 06:09:01;;;;;;;;;;;;;;;;;;5039220;28;19929;-71
2022/01/08 06:11:27;;;;;;;;;;;11.10;93.70;;;;;;5051857;28;19927;-73
2022/01/08 06:13:53;;;;;;;;;;;11.30;93.70;;;;;;5018920;28;19995;-73
2022/01/08 06:16:19;;;;;;;;;;;;;;;;;;5053152;28;19927;-73
2022/01/08 06:18:44;;;;;;;;;;;11.00;93.70;;;;;;5038429;28;19960;-72
2022/01/08 06:21:10;;;;;;;;;;;11.20;93.70;;;;;;5040396;28;19917;-73
2022/01/08 06:23:36;;;;;;;;;;;11.40;93.80;;;;;;5053768;28;20438;-72
2022/01/08 06:26:01;;;;;;;;;;;11.10;93.70;;;;;;5047069;28;19928;-71
2022/01/08 06:28:27;;;;;;;;;;;11.10;93.70;;;;;;5044337;28;20358;-73
2022/01/08 06:30:53;;;;;;;;;;;11.00;93.60;;;;;;5054280;28;20439;-68
2022/01/08 06:33:19;;;;;;;;;;;11.00;93.70;;;;;;5052908;28;19921;-72
2022/01/08 06:35:45;;;;;;;;;;;11.20;93.70;;;;;;5050172;28;20389;-72
2022/01/08 06:38:10;;;;;;;;;;;11.20;93.70;;;;;;5016383;28;19971;-72
2022/01/08 06:40:36;;;;;;;;;;;11.10;93.60;;;;;;5049635;28;19925;-73
2022/01/08 06:43:02;;;;;;;;;;;11.20;93.60;;;;;;5019588;28;19929;-73
2022/01/08 06:45:27;;;;;;;;;;;11.10;93.60;;;;;;5042231;28;20286;-73
2022/01/08 06:47:53;;;;;;;;;;;11.30;93.70;;;;;;5051948;28;19916;-75
2022/01/08 06:50:19;;;;;;;;;;;11.10;93.60;;;;;;5051986;28;19990;-75
2022/01/08 06:52:44;;;;;;;;;;;11.10;93.60;;;;;;5051973;28;19920;-74
2022/01/08 06:55:10;;;;;;;;;;;11.00;93.60;;;;;;5056662;28;19982;-73
2022/01/08 06:57:36;;;;;;;;;;;11.00;93.60;;;;;;5040379;28;19921;-73
2022/01/08 07:00:03;;;;;;;;;;;11.20;93.60;;;;;;5039453;28;19921;-71
2022/01/08 07:02:29;;;;;;;;;;;11.00;93.50;;;;;;5046045;28;19921;-71
2022/01/08 07:04:54;;;;;;;;;;;11.20;93.60;;;;;;5055687;28;19940;-70
2022/01/08 07:07:20;;;;;;;;;;;11.30;93.60;;;;;;5022498;28;19956;-73
2022/01/08 07:09:46;;;;;;;;;;;11.30;93.60;;;;;;5038400;28;19928;-73
2022/01/08 07:12:11;;;;;;;;;;;11.20;93.40;;;;;;5055445;28;19928;-69
2022/01/08 07:14:37;;;;;;;;;;;11.20;93.40;;;;;;5049823;28;20002;-73
2022/01/08 07:17:03;;;;;;;;;;;11.40;93.40;;;;;;5045368;28;19921;-72
2022/01/08 07:19:29;;;;;;;;;;;11.30;93.20;;;;;;5051612;28;19925;-72
2022/01/08 07:21:55;;;;;;;;;;;11.60;93.30;;;;;;5040669;28;19943;-73
2022/01/08 07:24:20;;;;;;;;;;;11.30;93.20;;;;;;5053313;28;19921;-72
2022/01/08 07:26:46;;;;;;;;;;;11.30;93.10;;;;;;5039853;28;19929;-80
2022/01/08 07:29:12;;;;;;;;;;;11.10;93.00;;;;;;5056468;28;20004;-62
2022/01/08 07:31:37;;;;;;;;;;;11.10;93.00;;;;;;5055444;28;20340;-68
2022/01/08 07:34:03;;;;;;;;;;;11.00;93.00;;;;;;5034858;28;20309;-62
2022/01/08 07:36:29;;;;;;;;;;;11.40;93.10;;;;;;5053309;28;19962;-69
2022/01/08 07:38:54;;;;;;;;;;;11.10;93.00;;;;;;5056378;28;19921;-65
2022/01/08 07:41:20;;;;;;;;;;;11.00;92.90;;;;;;5059182;28;19960;-62
2022/01/08 07:43:46;;;;;;;;;;;;;;;;;;5044938;28;19963;-66
2022/01/08 07:46:12;;;;;;;;;;;10.90;92.80;;;;;;5055688;28;19963;-62
2022/01/08 07:48:37;;;;;;;;;;;11.00;92.90;;;;;;5051933;28;19949;-63
2022/01/08 07:51:03;;;;;;;;;;;10.80;92.80;;;;;;5048715;28;19921;-64
2022/01/08 07:53:29;;;;;;;;;;;10.90;92.90;;;;;;5053380;28;19920;-63
2022/01/08 07:55:54;;;;;;;;;;;10.80;92.80;;;;;;5024592;28;19924;-62
2022/01/08 07:58:21;;;;;;;;;;;10.90;92.80;;;;;;5048138;28;20012;-62
2022/01/08 08:00:47;;;;;;;;;;;10.70;92.70;;;;;;5051369;28;19921;-62
2022/01/08 08:03:13;;;;;;;;;;;11.00;92.80;;;;;;5043693;28;19942;-62
2022/01/08 08:05:38;;;;;;;;;;;11.00;92.80;;;;;;5036985;28;19921;-72
2022/01/08 08:08:04;;;;;;;;;;;;;;;;;;5061672;28;20054;-65
2022/01/08 08:10:31;;;;;;;;;;;11.00;92.80;;;;;;5061240;28;19968;-73
2022/01/08 08:12:56;;;;;;;;;;;11.00;92.80;;;;;;5055243;28;19921;-74
2022/01/08 08:15:22;;;;;;;;;;;10.80;92.70;;;;;;5056406;28;20007;-74
2022/01/08 08:17:48;;;;;;;;;;;11.00;92.70;;;;;;5048828;28;20446;-78
2022/01/08 08:20:14;;;;;;;;;;;;;;;;;;5049956;28;19928;-75
2022/01/08 08:22:40;;;;;;;;;;;10.90;92.60;;;;;;5047767;28;19920;-77
2022/01/08 08:25:06;;;;;;;;;;;10.90;92.70;;;;;;5052418;28;20404;-77
2022/01/08 08:27:32;;;;;;;;;;;;;;;;;;5032990;28;19921;-67
2022/01/08 08:29:58;;;;;;;;;;;11.00;92.50;;;;;;5052281;28;20333;-76
2022/01/08 08:32:23;;;;;;;;;;;11.00;92.60;;;;;;5051398;28;19924;-70
2022/01/08 08:34:51;;;;;;;;;;;;;;;;;;5055583;28;20401;-69
2022/01/08 08:37:17;;;;;;;;;;;10.80;92.60;;;;;;5055033;28;19917;-74
2022/01/08 08:39:42;;;;;;;;;;;10.70;92.50;;;;;;5053344;28;19927;-74
2022/01/08 08:42:08;;;;;;;;;;;;;;;;;;5049970;28;19927;-69
2022/01/08 08:44:34;;;;;;;;;;;10.80;92.50;;;;;;5046115;28;19923;-64
2022/01/08 08:47:00;;;;;;;;;;;;;;;;;;5055013;28;20405;-65
2022/01/08 08:49:26;;;;;;;;;;;10.90;92.50;;;;;;5050389;28;19962;-74
2022/01/08 08:51:55;;;;;;;;;;;;;;;;;;5053312;28;20035;-66
2022/01/08 08:54:20;;;;;;;;;;;11.10;92.50;;;;;;5039892;28;19924;-71
2022/01/08 08:56:46;;;;;;;;;;;10.70;92.50;;;;;;5066426;28;19924;-65
2022/01/08 08:59:12;;;;;;;;;;;10.90;92.50;;;;;;5046450;28;19925;-62
2022/01/08 09:01:37;;;;;;;;;;;10.80;92.50;;;;;;5039638;28;19933;-62
2022/01/08 09:04:03;;;;;;;;;;;;;;;;;;5053538;28;19975;-67
2022/01/08 09:06:30;;;;;;;;;;;10.90;92.60;;;;;;5035449;28;20024;-62
2022/01/08 09:08:56;;;;;;;;;;;10.70;92.60;;;;;;5051353;28;19924;-64
2022/01/08 09:11:21;;;;;;;;;;;10.80;92.60;;;;;;5038995;28;19929;-63
2022/01/08 09:13:47;;;;;;;;;;;11.00;92.70;;;;;;5026471;28;19967;-63
2022/01/08 09:16:13;;;;;;;;;;;10.90;92.60;;;;;;5052851;28;19920;-63
2022/01/08 09:18:39;;;;;;;;;;;11.00;92.50;;;;;;5047176;28;19975;-64
2022/01/08 09:21:04;;;;;;;;;;;11.00;92.60;;;;;;5055131;28;19917;-63
2022/01/08 09:23:31;;;;;;;;;;;11.10;92.60;;;;;;5053022;28;19925;-63
2022/01/08 09:25:57;;;;;;;;;;;11.10;92.60;;;;;;5037595;28;20022;-67
2022/01/08 09:28:23;;;;;;;;;;;11.00;92.60;;;;;;5058693;28;19929;-65
2022/01/08 09:30:49;;;;;;;;;;;11.20;92.70;;;;;;5060857;28;19928;-69
2022/01/08 09:33:14;;;;;;;;;;;10.90;92.60;;;;;;5046574;28;20063;-68
2022/01/08 09:35:40;;;;;;;;;;;;;;;;;;5058677;28;19943;-70
2022/01/08 09:38:06;;;;;;;;;;;11.10;92.50;;;;;;5065698;28;19927;-62
2022/01/08 09:40:32;;;;;;;;;;;11.00;92.60;;;;;;5054707;28;20259;-65
2022/01/08 09:42:57;;;;;;;;;;;11.20;92.60;;;;;;5051580;28;20390;-63
2022/01/08 09:45:23;;;;;;;;;;;11.00;92.50;;;;;;5049908;28;19917;-62
2022/01/08 09:47:49;;;;;;;;;;;11.20;92.60;;;;;;5043883;28;20394;-64
2022/01/08 09:50:14;;;;;;;;;;;11.20;92.60;;;;;;5042273;28;19927;-62
2022/01/08 09:52:40;;;;;;;;;;;11.10;92.60;;;;;;5053628;28;20354;-65
2022/01/08 09:55:06;;;;;;;;;;;11.00;92.40;;;;;;5053859;28;20055;-64
2022/01/08 09:57:32;;;;;;;;;;;11.10;92.60;;;;;;5034527;28;20003;-63
2022/01/08 09:59:58;;;;;;;;;;;;;;;;;;5034290;28;19987;-65
2022/01/08 10:02:23;;;;;;;;;;;11.10;92.60;;;;;;5050767;28;19975;-63
2022/01/08 10:04:49;;;;;;;;;;;;;;;;;;5049614;28;20370;-62
2022/01/08 10:07:19;;;;;;;;;;;11.20;92.40;;;;;;5041129;28;19936;-62
2022/01/08 10:10:04;;;;;;;;;;;11.50;92.70;;;;;;5037177;28;19917;-62
2022/01/08 10:12:36;;;;;;;;;;;11.50;92.70;;;;;;5052958;28;19943;-63
2022/01/08 10:17:47;;;;;;;;;;;;;;;;;;5047078;28;19927;-63
2022/01/08 10:20:16;;;;;;;;;;;11.40;92.70;;;;;;5054127;28;20279;-62
2022/01/08 10:22:42;;;;;;;;;;;11.30;92.60;;;;;;5024784;28;20402;-63
2022/01/08 10:25:11;;;;;;;;;;;11.50;92.40;;;;;;5050818;28;19946;-63
2022/01/08 10:27:36;;;;;;;;;;;11.40;92.70;;;;;;5051708;28;19920;-62
2022/01/08 10:30:03;;;;;;;;;;;11.40;92.70;;;;;;5034719;28;20438;-62
2022/01/08 10:32:29;;;;;;;;;;;11.50;92.70;;;;;;5035537;28;19928;-62
2022/01/08 10:34:55;;;;;;;;;;;11.60;92.70;;;;;;5052582;28;19921;-62
2022/01/08 10:37:20;;;;;;;;;;;11.80;92.80;;;;;;5048459;28;19921;-62
2022/01/08 10:39:46;;;;;;;;;;;11.70;92.80;;;;;;5044199;28;19966;-62
2022/01/08 10:42:12;;;;;;;;;;;11.50;92.70;;;;;;5021459;28;19916;-62
2022/01/08 10:44:38;;;;;;;;;;;11.60;92.80;;;;;;5034789;28;20003;-62
2022/01/08 10:47:13;;;;;;;;;;;11.80;92.90;;;;;;5046449;28;19964;-63
2022/01/08 10:49:39;;;;;;;;;;;;;;;;;;5039692;28;19916;-62
2022/01/08 10:52:05;;;;;;;;;;;11.80;92.90;;;;;;5053437;28;19921;-62
2022/01/08 10:54:34;;;;;;;;;;;11.80;92.90;;;;;;5052259;28;19938;-62
2022/01/08 10:57:00;;;;;;;;;;;11.60;92.70;;;;;;5035104;28;19920;-62
2022/01/08 10:59:26;;;;;;;;;;;11.80;92.80;;;;;;5051618;28;19920;-62
2022/01/08 11:01:56;;;;;;;;;;;11.60;92.60;;;;;;5049757;28;19928;-62
2022/01/08 11:04:32;;;;;;;;;;;11.80;92.80;;;;;;5033701;28;19972;-62
2022/01/08 11:07:00;;;;;;;;;;;11.70;92.70;;;;;;5035422;28;20295;-62
2022/01/08 11:09:26;;;;;;;;;;;12.00;92.70;;;;;;5052369;28;19921;-62
2022/01/08 11:11:51;;;;;;;;;;;11.70;92.70;;;;;;5052380;28;19921;-62
2022/01/08 11:14:44;;;;;;;;;;;11.60;92.60;;;;;;5051702;28;20024;-62
2022/01/08 11:17:08;;;;;;;;;;;11.40;92.60;;;;;;5032794;28;19925;-61
2022/01/08 11:19:34;;;;;;;;;;;11.70;92.60;;;;;;5034801;28;20396;-61
2022/01/08 11:22:00;;;;;;;;;;;11.70;92.60;;;;;;5053507;28;19917;-61
2022/01/08 11:24:25;;;;;;;;;;;11.60;92.60;;;;;;5053520;28;19990;-62
2022/01/08 11:26:51;;;;;;;;;;;11.40;92.50;;;;;;5032969;28;19920;-62
2022/01/08 11:29:17;;;;;;;;;;;11.80;92.60;;;;;;5035402;28;19917;-62
2022/01/08 11:31:43;;;;;;;;;;;11.80;92.60;;;;;;5026197;28;19928;-62
2022/01/08 11:34:11;;;;;;;;;;;;;;;;;;5016176;28;20370;-62
2022/01/08 11:36:37;;;;;;;;;;;11.50;92.50;;;;;;5053406;28;19920;-62
2022/01/08 11:39:03;;;;;;;;;;;11.60;92.50;;;;;;5053066;28;19928;-62
2022/01/08 11:41:29;;;;;;;;;;;11.80;92.50;;;;;;5053179;28;19967;-62
2022/01/08 11:43:55;;;;;;;;;;;11.60;92.40;;;;;;5019533;28;19998;-62
2022/01/08 11:46:20;;;;;;;;;;;11.70;92.40;;;;;;5040222;28;19925;-62
2022/01/08 11:48:48;;;;;;;;;;;11.90;92.30;;;;;;5042682;28;19960;-62
2022/01/08 11:51:20;;;;;;;;;;;11.50;92.30;;;;;;5022760;28;20378;-61
2022/01/08 11:53:50;;;;;;;;;;;11.60;92.40;;;;;;5049532;28;20281;-62
2022/01/08 11:56:34;;;;;;;;;;;11.60;92.40;;;;;;5049151;28;20390;-68
2022/01/08 11:59:02;;;;;;;;;;;11.70;92.30;;;;;;5055750;28;20011;-67
2022/01/08 12:01:28;;;;;;;;;;;11.80;92.30;;;;;;5055835;28;20321;-67
2022/01/08 12:03:55;;;;;;;;;;;;;;;;;;5040067;28;19921;-70
2022/01/08 12:06:34;;;;;;;;;;;11.90;92.30;;;;;;5047177;28;19921;-74
2022/01/08 12:09:26;;;;;;;;;;;11.90;92.30;;;;;;5042218;28;19975;-74
2022/01/08 12:11:52;;;;;;;;;;;;;;;;;;5036398;28;19928;-71
2022/01/08 12:14:18;;;;;;;;;;;;;;;;;;5051521;28;19921;-73
2022/01/08 12:16:47;;;;;;;;;;;11.80;92.30;;;;;;5054715;28;19960;-74
2022/01/08 12:19:31;;;;;;;;;;;11.60;92.20;;;;;;5056404;28;19921;-73
2022/01/08 12:21:57;;;;;;;;;;;11.60;92.10;;;;;;5054535;28;19920;-74
2022/01/08 12:24:26;;;;;;;;;;;11.70;92.20;;;;;;5047942;28;19928;-74
2022/01/08 12:26:56;;;;;;;;;;;11.70;92.10;;;;;;5055310;28;19921;-74
2022/01/08 12:29:31;;;;;;;;;;;11.50;92.20;;;;;;5056231;28;20395;-73
2022/01/08 12:32:16;;;;;;;;;;;11.40;92.20;;;;;;5047582;28;19921;-70
2022/01/08 12:34:51;;;;;;;;;;;11.30;92.20;;;;;;5047843;28;19956;-62
2022/01/08 12:37:19;;;;;;;;;;;;;;;;;;5037185;28;20263;-72
2022/01/08 12:39:48;;;;;;;;;;;11.60;92.30;;;;;;5045379;28;19928;-74
2022/01/08 12:42:20;;;;;;;;;;;11.70;92.30;;;;;;5038381;28;19921;-74
2022/01/08 12:45:04;;;;;;;;;;;11.50;92.30;;;;;;5035869;28;19991;-71
2022/01/08 12:47:42;;;;;;;;;;;11.30;92.30;;;;;;5035776;28;19925;-71
2022/01/08 12:50:23;;;;;;;;;;;11.30;92.30;;;;;;5032150;28;20024;-70
2022/01/08 12:53:07;;;;;;;;;;;11.50;92.40;;;;;;5036913;28;20263;-67
2022/01/08 12:55:33;;;;;;;;;;;;;;;;;;5055715;28;19928;-70
2022/01/08 12:57:59;;;;;;;;;;;11.20;92.30;;;;;;5043869;28;20336;-63
2022/01/08 13:00:24;;;;;;;;;;;11.40;92.40;;;;;;5055315;28;19923;-69
2022/01/08 13:02:50;;;;;;;;;;;11.40;92.40;;;;;;5052962;28;20024;-68
2022/01/08 13:05:16;;;;;;;;;;;11.30;92.40;;;;;;5054203;28;19928;-69
2022/01/08 13:07:51;;;;;;;;;;;11.10;92.50;;;;;;5055462;28;19916;-69
2022/01/08 13:10:16;;;;;;;;;;;11.40;92.50;;;;;;5038508;28;19921;-70
2022/01/08 13:12:42;;;;;;;;;;;11.30;92.50;;;;;;5042254;28;19921;-70
2022/01/08 13:15:08;;;;;;;;;;;11.20;92.50;;;;;;5028514;28;19928;-71
2022/01/08 13:17:34;;;;;;;;;;;11.00;92.40;;;;;;5048264;28;20307;-68
2022/01/08 13:20:03;;;;;;;;;;;11.20;92.50;;;;;;5035609;28;19960;-69
2022/01/08 13:22:30;;;;;;;;;;;11.10;92.50;;;;;;5040418;28;20023;-69
2022/01/08 13:24:56;;;;;;;;;;;11.20;92.50;;;;;;5053703;28;19943;-70
2022/01/08 13:27:23;;;;;;;;;;;11.10;92.50;;;;;;5037024;28;20011;-71
2022/01/08 13:29:49;;;;;;;;;;;11.30;92.50;;;;;;5053783;28;19935;-70
2022/01/08 13:32:18;;;;;;;;;;;10.90;92.30;;;;;;5036202;28;19967;-69
2022/01/08 13:35:04;;;;;;;;;;;11.10;92.70;;;;;;5034528;28;19921;-69
2022/01/08 13:37:30;;;;;;;;;;;;;;;;;;5052894;28;19928;-69
2022/01/08 13:39:57;;;;;;;;;;;11.10;92.70;;;;;;5040159;28;19921;-67
2022/01/08 13:42:24;;;;;;;;;;;11.00;92.80;;;;;;5034673;28;19923;-72
2022/01/08 13:45:07;;;;;;;;;;;11.40;92.80;;;;;;5032453;28;19951;-69
2022/01/08 13:47:34;;;;;;;;;;;11.50;92.80;;;;;;5024728;28;19921;-74
2022/01/08 13:50:01;;;;;;;;;;;11.30;92.70;;;;;;5032415;28;19931;-71
2022/01/08 13:52:36;;;;;;;;;;;11.20;92.40;;;;;;5054205;28;19935;-65
2022/01/08 13:55:08;;;;;;;;;;;11.10;92.90;;;;;;5042308;28;19971;-67
2022/01/08 13:57:34;;;;;;;;;;;11.00;93.00;;;;;;5034620;28;20330;-70
2022/01/08 14:00:29;;;;;;;;;;;11.30;93.00;;;;;;5036345;28;19929;-68
2022/01/08 14:02:55;;;;;;;;;;;11.20;93.00;;;;;;5010636;28;19925;-70
2022/01/08 14:05:21;;;;;;;;;;;11.20;92.90;;;;;;5006193;28;19922;-74
2022/01/08 14:07:46;;;;;;;;;;;11.30;93.00;;;;;;5015004;28;19939;-64
2022/01/08 14:10:13;;;;;;;;;;;11.30;92.90;;;;;;5019372;28;19943;-63
2022/01/08 14:12:39;;;;;;;;;;;11.40;93.00;;;;;;5021755;28;20407;-63
2022/01/08 14:15:06;;;;;;;;;;;;;;;;;;5019413;28;19929;-65
2022/01/08 14:17:32;;;;;;;;;;;;;;;;;;5017667;28;19926;-63
2022/01/08 14:19:58;;;;;;;;;;;11.30;92.80;;;;;;5015309;28;19921;-62
2022/01/08 14:22:23;;;;;;;;;;;11.20;92.80;;;;;;5002696;28;19929;-64
2022/01/08 14:24:51;;;;;;;;;;;11.20;92.70;;;;;;5008354;28;19929;-64
2022/01/08 14:27:18;;;;;;;;;;;11.20;92.70;;;;;;5006878;28;20434;-62
2022/01/08 14:29:44;;;;;;;;;;;;;;;;;;5015436;28;20410;-63
2022/01/08 14:32:10;;;;;;;;;;;;;;;;;;5017776;28;20024;-66
2022/01/08 14:34:49;;;;;;;;;;;11.30;92.60;;;;;;5018102;28;19921;-70
2022/01/08 14:37:28;;;;;;;;;;;11.30;92.50;;;;;;5008886;28;20286;-63
2022/01/08 14:39:53;;;;;;;;;;;10.90;92.50;;;;;;5026569;28;19927;-64
2022/01/08 14:42:19;;;;;;;;;;;11.10;92.50;;;;;;5050691;28;19916;-64
2022/01/08 14:44:50;;;;;;;;;;;11.30;92.60;;;;;;5055990;28;19951;-70
2022/01/08 14:47:28;;;;;;;;;;;11.00;92.50;;;;;;5052261;28;19923;-69
2022/01/08 14:49:54;;;;;;;;;;;10.90;92.40;;;;;;5030427;28;19924;-69
2022/01/08 14:52:21;;;;;;;;;;;11.20;92.50;;;;;;5034664;28;20175;-70
2022/01/08 14:54:46;;;;;;;;;;;11.00;92.50;;;;;;5046530;28;19974;-69
2022/01/08 14:57:12;;;;;;;;;;;10.80;92.50;;;;;;5036065;28;19917;-69